sensor_id;sensor_type;location;lat;lon;timestamp;pressure;altitude;pressure_sealevel;temperature
20058;BMP180;10189;49.546;7.906;2024-01-07T00:01:59;97720.00;;;5.90
20058;BMP180;10189;49.546;7.906;2024-01-07T00:04:25;97714.00;;;5.90
20058;BMP180;10189;49.546;7.906;2024-01-07T00:06:51;97718.00;;;5.90
20058;BMP180;10189;49.546;7.906;2024-01-07T00:09:17;97716.00;;;5.90
20058;BMP180;10189;49.546;7.906;2024-01-07T00:11:42;97723.00;;;5.90
20058;BMP180;10189;49.546;7.906;2024-01-07T00:14:08;97715.00;;;5.80
20058;BMP180;10189;49.546;7.906;2024-01-07T00:16:34;97714.00;;;5.80
20058;BMP180;10189;49.546;7.906;2024-01-07T00:19:00;97709.00;;;5.90
20058;BMP180;10189;49.546;7.906;2024-01-07T00:21:26;97718.00;;;5.90
20058;BMP180;10189;49.546;7.906;2024-01-07T00:23:52;97724.00;;;6.00
20058;BMP180;10189;49.546;7.906;2024-01-07T00:26:18;97724.00;;;6.00
20058;BMP180;10189;49.546;7.906;2024-01-07T00:28:44;97723.00;;;6.00
20058;BMP180;10189;49.546;7.906;2024-01-07T00:31:12;97731.00;;;6.00
20058;BMP180;10189;49.546;7.906;2024-01-07T00:33:38;97722.00;;;6.00
20058;BMP180;10189;49.546;7.906;2024-01-07T00:36:04;97726.00;;;6.10
20058;BMP180;10189;49.546;7.906;2024-01-07T00:38:30;97733.00;;;6.20
20058;BMP180;10189;49.546;7.906;2024-01-07T00:40:56;97741.00;;;6.10
20058;BMP180;10189;49.546;7.906;2024-01-07T00:43:22;97732.00;;;6.20
20058;BMP180;10189;49.546;7.906;2024-01-07T00:45:47;97735.00;;;6.20
20058;BMP180;10189;49.546;7.906;2024-01-07T00:48:14;97740.00;;;6.20
20058;BMP180;10189;49.546;7.906;2024-01-07T00:50:41;97741.00;;;6.20
20058;BMP180;10189;49.546;7.906;2024-01-07T00:53:07;97731.00;;;6.10
20058;BMP180;10189;49.546;7.906;2024-01-07T00:55:32;97742.00;;;6.10
20058;BMP180;10189;49.546;7.906;2024-01-07T00:57:58;97748.00;;;6.10
20058;BMP180;10189;49.546;7.906;2024-01-07T01:00:24;97750.00;;;6.10
20058;BMP180;10189;49.546;7.906;2024-01-07T01:02:50;97750.00;;;6.10
20058;BMP180;10189;49.546;7.906;2024-01-07T01:05:16;97747.00;;;6.20
20058;BMP180;10189;49.546;7.906;2024-01-07T01:07:42;97755.00;;;6.00
20058;BMP180;10189;49.546;7.906;2024-01-07T01:10:08;97756.00;;;6.00
20058;BMP180;10189;49.546;7.906;2024-01-07T01:12:35;97756.00;;;6.00
20058;BMP180;10189;49.546;7.906;2024-01-07T01:15:00;97756.00;;;6.00
20058;BMP180;10189;49.546;7.906;2024-01-07T01:17:27;97760.00;;;6.00
20058;BMP180;10189;49.546;7.906;2024-01-07T01:19:52;97755.00;;;6.00
20058;BMP180;10189;49.546;7.906;2024-01-07T01:22:18;97756.00;;;6.00
20058;BMP180;10189;49.546;7.906;2024-01-07T01:24:44;97750.00;;;5.90
20058;BMP180;10189;49.546;7.906;2024-01-07T01:27:12;97761.00;;;6.00
20058;BMP180;10189;49.546;7.906;2024-01-07T01:29:39;97752.00;;;5.90
20058;BMP180;10189;49.546;7.906;2024-01-07T01:32:06;97756.00;;;5.90
20058;BMP180;10189;49.546;7.906;2024-01-07T01:34:32;97768.00;;;5.90
20058;BMP180;10189;49.546;7.906;2024-01-07T01:36:58;97765.00;;;6.00
20058;BMP180;10189;49.546;7.906;2024-01-07T01:39:24;97769.00;;;6.00
20058;BMP180;10189;49.546;7.906;2024-01-07T01:41:50;97772.00;;;5.90
20058;BMP180;10189;49.546;7.906;2024-01-07T01:44:16;97767.00;;;5.90
20058;BMP180;10189;49.546;7.906;2024-01-07T01:46:44;97761.00;;;5.90
20058;BMP180;10189;49.546;7.906;2024-01-07T01:49:11;97774.00;;;6.00
20058;BMP180;10189;49.546;7.906;2024-01-07T01:51:37;97770.00;;;5.80
20058;BMP180;10189;49.546;7.906;2024-01-07T01:54:04;97770.00;;;5.80
20058;BMP180;10189;49.546;7.906;2024-01-07T01:56:30;97774.00;;;5.80
20058;BMP180;10189;49.546;7.906;2024-01-07T01:58:57;97769.00;;;5.80
20058;BMP180;10189;49.546;7.906;2024-01-07T02:01:24;97784.00;;;5.80
20058;BMP180;10189;49.546;7.906;2024-01-07T02:03:50;97783.00;;;5.80
20058;BMP180;10189;49.546;7.906;2024-01-07T02:06:19;97789.00;;;5.70
20058;BMP180;10189;49.546;7.906;2024-01-07T02:08:46;97783.00;;;5.80
20058;BMP180;10189;49.546;7.906;2024-01-07T02:11:20;97786.00;;;5.80
20058;BMP180;10189;49.546;7.906;2024-01-07T02:13:46;97788.00;;;5.70
20058;BMP180;10189;49.546;7.906;2024-01-07T02:16:14;97789.00;;;5.70
20058;BMP180;10189;49.546;7.906;2024-01-07T02:18:45;97790.00;;;5.70
20058;BMP180;10189;49.546;7.906;2024-01-07T02:21:13;97779.00;;;5.60
20058;BMP180;10189;49.546;7.906;2024-01-07T02:23:39;97793.00;;;5.70
20058;BMP180;10189;49.546;7.906;2024-01-07T02:26:05;97786.00;;;5.70
20058;BMP180;10189;49.546;7.906;2024-01-07T02:28:33;97786.00;;;5.80
20058;BMP180;10189;49.546;7.906;2024-01-07T02:30:59;97781.00;;;5.70
20058;BMP180;10189;49.546;7.906;2024-01-07T02:33:25;97794.00;;;5.70
20058;BMP180;10189;49.546;7.906;2024-01-07T02:35:51;97788.00;;;5.60
20058;BMP180;10189;49.546;7.906;2024-01-07T02:38:17;97791.00;;;5.70
20058;BMP180;10189;49.546;7.906;2024-01-07T02:40:43;97795.00;;;5.70
20058;BMP180;10189;49.546;7.906;2024-01-07T02:43:09;97803.00;;;5.70
20058;BMP180;10189;49.546;7.906;2024-01-07T02:45:35;97794.00;;;5.60
20058;BMP180;10189;49.546;7.906;2024-01-07T02:48:01;97798.00;;;5.60
20058;BMP180;10189;49.546;7.906;2024-01-07T02:50:27;97790.00;;;5.70
20058;BMP180;10189;49.546;7.906;2024-01-07T02:52:53;97794.00;;;5.70
20058;BMP180;10189;49.546;7.906;2024-01-07T02:55:19;97790.00;;;5.60
20058;BMP180;10189;49.546;7.906;2024-01-07T02:57:45;97794.00;;;5.60
20058;BMP180;10189;49.546;7.906;2024-01-07T03:00:11;97795.00;;;5.60
20058;BMP180;10189;49.546;7.906;2024-01-07T03:02:37;97793.00;;;5.70
20058;BMP180;10189;49.546;7.906;2024-01-07T03:05:03;97802.00;;;5.70
20058;BMP180;10189;49.546;7.906;2024-01-07T03:07:29;97801.00;;;5.60
20058;BMP180;10189;49.546;7.906;2024-01-07T03:09:55;97803.00;;;5.60
20058;BMP180;10189;49.546;7.906;2024-01-07T03:12:21;97805.00;;;5.60
20058;BMP180;10189;49.546;7.906;2024-01-07T03:14:46;97804.00;;;5.60
20058;BMP180;10189;49.546;7.906;2024-01-07T03:17:12;97811.00;;;5.50
20058;BMP180;10189;49.546;7.906;2024-01-07T03:19:40;97807.00;;;5.50
20058;BMP180;10189;49.546;7.906;2024-01-07T03:22:07;97805.00;;;5.40
20058;BMP180;10189;49.546;7.906;2024-01-07T03:24:33;97808.00;;;5.60
20058;BMP180;10189;49.546;7.906;2024-01-07T03:27:00;97809.00;;;5.60
20058;BMP180;10189;49.546;7.906;2024-01-07T03:29:26;97812.00;;;5.50
20058;BMP180;10189;49.546;7.906;2024-01-07T03:31:51;97813.00;;;5.40
20058;BMP180;10189;49.546;7.906;2024-01-07T03:34:19;97808.00;;;5.50
20058;BMP180;10189;49.546;7.906;2024-01-07T03:36:45;97809.00;;;5.50
20058;BMP180;10189;49.546;7.906;2024-01-07T03:39:11;97812.00;;;5.50
20058;BMP180;10189;49.546;7.906;2024-01-07T03:41:37;97811.00;;;5.50
20058;BMP180;10189;49.546;7.906;2024-01-07T03:44:03;97816.00;;;5.50
20058;BMP180;10189;49.546;7.906;2024-01-07T03:46:29;97811.00;;;5.50
20058;BMP180;10189;49.546;7.906;2024-01-07T03:48:55;97820.00;;;5.50
20058;BMP180;10189;49.546;7.906;2024-01-07T03:51:21;97820.00;;;5.50
20058;BMP180;10189;49.546;7.906;2024-01-07T03:53:46;97813.00;;;5.50
20058;BMP180;10189;49.546;7.906;2024-01-07T03:56:12;97825.00;;;5.40
20058;BMP180;10189;49.546;7.906;2024-01-07T03:58:38;97827.00;;;5.40
20058;BMP180;10189;49.546;7.906;2024-01-07T04:01:04;97820.00;;;5.30
20058;BMP180;10189;49.546;7.906;2024-01-07T04:03:30;97821.00;;;5.30
20058;BMP180;10189;49.546;7.906;2024-01-07T04:05:56;97828.00;;;5.30
20058;BMP180;10189;49.546;7.906;2024-01-07T04:08:22;97820.00;;;5.40
20058;BMP180;10189;49.546;7.906;2024-01-07T04:10:49;97829.00;;;5.30
20058;BMP180;10189;49.546;7.906;2024-01-07T04:13:15;97832.00;;;5.30
20058;BMP180;10189;49.546;7.906;2024-01-07T04:15:41;97826.00;;;5.30
20058;BMP180;10189;49.546;7.906;2024-01-07T04:18:07;97825.00;;;5.30
20058;BMP180;10189;49.546;7.906;2024-01-07T04:20:33;97827.00;;;5.30
20058;BMP180;10189;49.546;7.906;2024-01-07T04:22:59;97823.00;;;5.40
20058;BMP180;10189;49.546;7.906;2024-01-07T04:25:25;97837.00;;;5.40
20058;BMP180;10189;49.546;7.906;2024-01-07T04:27:51;97834.00;;;5.40
20058;BMP180;10189;49.546;7.906;2024-01-07T04:30:17;97850.00;;;5.40
20058;BMP180;10189;49.546;7.906;2024-01-07T04:32:42;97826.00;;;5.40
20058;BMP180;10189;49.546;7.906;2024-01-07T04:35:08;97835.00;;;5.30
20058;BMP180;10189;49.546;7.906;2024-01-07T04:37:36;97846.00;;;5.30
20058;BMP180;10189;49.546;7.906;2024-01-07T04:40:03;97839.00;;;5.40
20058;BMP180;10189;49.546;7.906;2024-01-07T04:42:29;97846.00;;;5.40
20058;BMP180;10189;49.546;7.906;2024-01-07T04:44:55;97852.00;;;5.40
20058;BMP180;10189;49.546;7.906;2024-01-07T04:47:32;97851.00;;;5.40
20058;BMP180;10189;49.546;7.906;2024-01-07T04:50:00;97861.00;;;5.40
20058;BMP180;10189;49.546;7.906;2024-01-07T04:52:26;97858.00;;;5.40
20058;BMP180;10189;49.546;7.906;2024-01-07T04:54:53;97855.00;;;5.50
20058;BMP180;10189;49.546;7.906;2024-01-07T04:57:20;97863.00;;;5.40
20058;BMP180;10189;49.546;7.906;2024-01-07T04:59:48;97849.00;;;5.60
20058;BMP180;10189;49.546;7.906;2024-01-07T05:02:14;97857.00;;;5.50
20058;BMP180;10189;49.546;7.906;2024-01-07T05:04:41;97863.00;;;5.50
20058;BMP180;10189;49.546;7.906;2024-01-07T05:07:07;97871.00;;;5.40
20058;BMP180;10189;49.546;7.906;2024-01-07T05:09:33;97854.00;;;5.50
20058;BMP180;10189;49.546;7.906;2024-01-07T05:12:00;97867.00;;;5.50
20058;BMP180;10189;49.546;7.906;2024-01-07T05:14:27;97862.00;;;5.50
20058;BMP180;10189;49.546;7.906;2024-01-07T05:16:56;97864.00;;;5.40
20058;BMP180;10189;49.546;7.906;2024-01-07T05:19:22;97882.00;;;5.50
20058;BMP180;10189;49.546;7.906;2024-01-07T05:21:48;97870.00;;;5.40
20058;BMP180;10189;49.546;7.906;2024-01-07T05:24:14;97873.00;;;5.50
20058;BMP180;10189;49.546;7.906;2024-01-07T05:26:43;97863.00;;;5.60
20058;BMP180;10189;49.546;7.906;2024-01-07T05:29:11;97870.00;;;5.60
20058;BMP180;10189;49.546;7.906;2024-01-07T05:31:39;97883.00;;;5.60
20058;BMP180;10189;49.546;7.906;2024-01-07T05:34:05;97868.00;;;5.60
20058;BMP180;10189;49.546;7.906;2024-01-07T05:36:31;97870.00;;;5.50
20058;BMP180;10189;49.546;7.906;2024-01-07T05:38:57;97872.00;;;5.60
20058;BMP180;10189;49.546;7.906;2024-01-07T05:41:23;97880.00;;;5.70
20058;BMP180;10189;49.546;7.906;2024-01-07T05:43:49;97883.00;;;5.70
20058;BMP180;10189;49.546;7.906;2024-01-07T05:46:14;97892.00;;;5.60
20058;BMP180;10189;49.546;7.906;2024-01-07T05:48:46;97884.00;;;5.60
20058;BMP180;10189;49.546;7.906;2024-01-07T05:51:13;97896.00;;;5.50
20058;BMP180;10189;49.546;7.906;2024-01-07T05:53:43;97900.00;;;5.60
20058;BMP180;10189;49.546;7.906;2024-01-07T05:56:09;97896.00;;;5.50
20058;BMP180;10189;49.546;7.906;2024-01-07T05:58:35;97902.00;;;5.50
20058;BMP180;10189;49.546;7.906;2024-01-07T06:01:02;97907.00;;;5.40
20058;BMP180;10189;49.546;7.906;2024-01-07T06:03:27;97898.00;;;5.50
20058;BMP180;10189;49.546;7.906;2024-01-07T06:05:53;97898.00;;;5.50
20058;BMP180;10189;49.546;7.906;2024-01-07T06:08:19;97908.00;;;5.40
20058;BMP180;10189;49.546;7.906;2024-01-07T06:10:45;97912.00;;;5.40
20058;BMP180;10189;49.546;7.906;2024-01-07T06:13:11;97912.00;;;5.50
20058;BMP180;10189;49.546;7.906;2024-01-07T06:15:37;97919.00;;;5.50
20058;BMP180;10189;49.546;7.906;2024-01-07T06:18:03;97913.00;;;5.50
20058;BMP180;10189;49.546;7.906;2024-01-07T06:20:29;97916.00;;;5.50
20058;BMP180;10189;49.546;7.906;2024-01-07T06:22:55;97922.00;;;5.50
20058;BMP180;10189;49.546;7.906;2024-01-07T06:25:20;97930.00;;;5.50
20058;BMP180;10189;49.546;7.906;2024-01-07T06:27:46;97933.00;;;5.50
20058;BMP180;10189;49.546;7.906;2024-01-07T06:30:13;97935.00;;;5.40
20058;BMP180;10189;49.546;7.906;2024-01-07T06:32:39;97942.00;;;5.50
20058;BMP180;10189;49.546;7.906;2024-01-07T06:35:05;97937.00;;;5.50
20058;BMP180;10189;49.546;7.906;2024-01-07T06:37:31;97938.00;;;5.50
20058;BMP180;10189;49.546;7.906;2024-01-07T06:39:57;97941.00;;;5.60
20058;BMP180;10189;49.546;7.906;2024-01-07T06:42:26;97946.00;;;5.60
20058;BMP180;10189;49.546;7.906;2024-01-07T06:44:52;97933.00;;;5.60
20058;BMP180;10189;49.546;7.906;2024-01-07T06:47:19;97937.00;;;5.60
20058;BMP180;10189;49.546;7.906;2024-01-07T06:49:45;97938.00;;;5.60
20058;BMP180;10189;49.546;7.906;2024-01-07T06:52:11;97951.00;;;5.60
20058;BMP180;10189;49.546;7.906;2024-01-07T06:54:37;97952.00;;;5.60
20058;BMP180;10189;49.546;7.906;2024-01-07T06:57:04;97953.00;;;5.60
20058;BMP180;10189;49.546;7.906;2024-01-07T06:59:30;97960.00;;;5.70
20058;BMP180;10189;49.546;7.906;2024-01-07T07:01:56;97954.00;;;5.80
20058;BMP180;10189;49.546;7.906;2024-01-07T07:04:22;97951.00;;;5.80
20058;BMP180;10189;49.546;7.906;2024-01-07T07:06:48;97967.00;;;5.80
20058;BMP180;10189;49.546;7.906;2024-01-07T07:09:14;97961.00;;;5.80
20058;BMP180;10189;49.546;7.906;2024-01-07T07:11:41;97969.00;;;5.70
20058;BMP180;10189;49.546;7.906;2024-01-07T07:14:07;97960.00;;;5.80
20058;BMP180;10189;49.546;7.906;2024-01-07T07:16:33;97972.00;;;5.90
20058;BMP180;10189;49.546;7.906;2024-01-07T07:18:59;97967.00;;;5.90
20058;BMP180;10189;49.546;7.906;2024-01-07T07:21:25;97977.00;;;5.90
20058;BMP180;10189;49.546;7.906;2024-01-07T07:23:52;97982.00;;;5.80
20058;BMP180;10189;49.546;7.906;2024-01-07T07:26:18;97992.00;;;5.90
20058;BMP180;10189;49.546;7.906;2024-01-07T07:28:44;97980.00;;;6.00
20058;BMP180;10189;49.546;7.906;2024-01-07T07:31:13;97983.00;;;6.00
20058;BMP180;10189;49.546;7.906;2024-01-07T07:33:41;97986.00;;;6.00
20058;BMP180;10189;49.546;7.906;2024-01-07T07:36:08;97994.00;;;6.00
20058;BMP180;10189;49.546;7.906;2024-01-07T07:38:34;98004.00;;;6.00
20058;BMP180;10189;49.546;7.906;2024-01-07T07:41:00;97993.00;;;6.10
20058;BMP180;10189;49.546;7.906;2024-01-07T07:43:26;97987.00;;;5.90
20058;BMP180;10189;49.546;7.906;2024-01-07T07:45:52;97991.00;;;6.00
20058;BMP180;10189;49.546;7.906;2024-01-07T07:48:19;98001.00;;;6.00
20058;BMP180;10189;49.546;7.906;2024-01-07T07:50:45;98009.00;;;6.00
20058;BMP180;10189;49.546;7.906;2024-01-07T07:53:10;98008.00;;;6.00
20058;BMP180;10189;49.546;7.906;2024-01-07T07:55:36;98005.00;;;6.10
20058;BMP180;10189;49.546;7.906;2024-01-07T07:58:02;98018.00;;;6.10
20058;BMP180;10189;49.546;7.906;2024-01-07T08:00:28;98012.00;;;6.10
20058;BMP180;10189;49.546;7.906;2024-01-07T08:02:54;98023.00;;;6.00
20058;BMP180;10189;49.546;7.906;2024-01-07T08:05:20;98022.00;;;6.00
20058;BMP180;10189;49.546;7.906;2024-01-07T08:07:45;98027.00;;;6.00
20058;BMP180;10189;49.546;7.906;2024-01-07T08:10:11;98036.00;;;6.00
20058;BMP180;10189;49.546;7.906;2024-01-07T08:12:37;98043.00;;;6.00
20058;BMP180;10189;49.546;7.906;2024-01-07T08:15:05;98036.00;;;6.00
20058;BMP180;10189;49.546;7.906;2024-01-07T08:17:31;98050.00;;;5.90
20058;BMP180;10189;49.546;7.906;2024-01-07T08:19:57;98052.00;;;5.90
20058;BMP180;10189;49.546;7.906;2024-01-07T08:22:22;98053.00;;;6.00
20058;BMP180;10189;49.546;7.906;2024-01-07T08:24:49;98057.00;;;5.90
20058;BMP180;10189;49.546;7.906;2024-01-07T08:27:16;98055.00;;;5.80
20058;BMP180;10189;49.546;7.906;2024-01-07T08:29:44;98060.00;;;5.80
20058;BMP180;10189;49.546;7.906;2024-01-07T08:32:10;98067.00;;;5.80
20058;BMP180;10189;49.546;7.906;2024-01-07T08:34:38;98068.00;;;5.80
20058;BMP180;10189;49.546;7.906;2024-01-07T08:37:06;98067.00;;;5.80
20058;BMP180;10189;49.546;7.906;2024-01-07T08:39:32;98069.00;;;5.80
20058;BMP180;10189;49.546;7.906;2024-01-07T08:41:58;98067.00;;;5.80
20058;BMP180;10189;49.546;7.906;2024-01-07T08:44:24;98073.00;;;5.80
20058;BMP180;10189;49.546;7.906;2024-01-07T08:46:49;98074.00;;;5.70
20058;BMP180;10189;49.546;7.906;2024-01-07T08:49:15;98082.00;;;5.70
20058;BMP180;10189;49.546;7.906;2024-01-07T08:51:41;98068.00;;;5.80
20058;BMP180;10189;49.546;7.906;2024-01-07T08:54:08;98085.00;;;5.80
20058;BMP180;10189;49.546;7.906;2024-01-07T08:56:33;98083.00;;;5.70
20058;BMP180;10189;49.546;7.906;2024-01-07T08:58:59;98078.00;;;5.70
20058;BMP180;10189;49.546;7.906;2024-01-07T09:01:25;98082.00;;;5.70
20058;BMP180;10189;49.546;7.906;2024-01-07T09:03:51;98085.00;;;5.70
20058;BMP180;10189;49.546;7.906;2024-01-07T09:06:17;98088.00;;;5.70
20058;BMP180;10189;49.546;7.906;2024-01-07T09:08:43;98097.00;;;5.60
20058;BMP180;10189;49.546;7.906;2024-01-07T09:11:09;98094.00;;;5.60
20058;BMP180;10189;49.546;7.906;2024-01-07T09:13:38;98113.00;;;5.50
20058;BMP180;10189;49.546;7.906;2024-01-07T09:16:04;98104.00;;;5.50
20058;BMP180;10189;49.546;7.906;2024-01-07T09:18:30;98117.00;;;5.50
20058;BMP180;10189;49.546;7.906;2024-01-07T09:20:56;98114.00;;;5.40
20058;BMP180;10189;49.546;7.906;2024-01-07T09:23:22;98125.00;;;5.40
20058;BMP180;10189;49.546;7.906;2024-01-07T09:25:48;98124.00;;;5.40
20058;BMP180;10189;49.546;7.906;2024-01-07T09:28:15;98134.00;;;5.40
20058;BMP180;10189;49.546;7.906;2024-01-07T09:30:41;98131.00;;;5.40
20058;BMP180;10189;49.546;7.906;2024-01-07T09:33:06;98127.00;;;5.40
20058;BMP180;10189;49.546;7.906;2024-01-07T09:35:32;98130.00;;;5.50
20058;BMP180;10189;49.546;7.906;2024-01-07T09:37:58;98134.00;;;5.50
20058;BMP180;10189;49.546;7.906;2024-01-07T09:40:24;98138.00;;;5.50
20058;BMP180;10189;49.546;7.906;2024-01-07T09:42:50;98130.00;;;5.40
20058;BMP180;10189;49.546;7.906;2024-01-07T09:45:18;98132.00;;;5.50
20058;BMP180;10189;49.546;7.906;2024-01-07T09:47:45;98139.00;;;5.50
20058;BMP180;10189;49.546;7.906;2024-01-07T09:50:11;98143.00;;;5.50
20058;BMP180;10189;49.546;7.906;2024-01-07T09:52:44;98148.00;;;5.40
20058;BMP180;10189;49.546;7.906;2024-01-07T09:55:44;98142.00;;;5.40
20058;BMP180;10189;49.546;7.906;2024-01-07T09:58:13;98147.00;;;5.50
20058;BMP180;10189;49.546;7.906;2024-01-07T10:00:39;98145.00;;;5.50
20058;BMP180;10189;49.546;7.906;2024-01-07T10:03:05;98161.00;;;5.40
20058;BMP180;10189;49.546;7.906;2024-01-07T10:05:31;98146.00;;;5.40
20058;BMP180;10189;49.546;7.906;2024-01-07T10:07:57;98149.00;;;5.30
20058;BMP180;10189;49.546;7.906;2024-01-07T10:10:23;98152.00;;;5.40
20058;BMP180;10189;49.546;7.906;2024-01-07T10:12:49;98167.00;;;5.40
20058;BMP180;10189;49.546;7.906;2024-01-07T10:15:15;98150.00;;;5.30
20058;BMP180;10189;49.546;7.906;2024-01-07T10:17:44;98165.00;;;5.30
20058;BMP180;10189;49.546;7.906;2024-01-07T10:20:11;98158.00;;;5.40
20058;BMP180;10189;49.546;7.906;2024-01-07T10:22:38;98166.00;;;5.40
20058;BMP180;10189;49.546;7.906;2024-01-07T10:25:05;98160.00;;;5.40
20058;BMP180;10189;49.546;7.906;2024-01-07T10:27:36;98165.00;;;5.40
20058;BMP180;10189;49.546;7.906;2024-01-07T10:30:03;98182.00;;;5.40
20058;BMP180;10189;49.546;7.906;2024-01-07T10:32:29;98163.00;;;5.50
20058;BMP180;10189;49.546;7.906;2024-01-07T10:35:03;98164.00;;;5.40
20058;BMP180;10189;49.546;7.906;2024-01-07T10:37:30;98159.00;;;5.40
20058;BMP180;10189;49.546;7.906;2024-01-07T10:40:00;98156.00;;;5.50
20058;BMP180;10189;49.546;7.906;2024-01-07T10:42:31;98156.00;;;5.50
20058;BMP180;10189;49.546;7.906;2024-01-07T10:45:01;98171.00;;;5.50
20058;BMP180;10189;49.546;7.906;2024-01-07T10:47:31;98167.00;;;5.40
20058;BMP180;10189;49.546;7.906;2024-01-07T10:49:59;98163.00;;;5.50
20058;BMP180;10189;49.546;7.906;2024-01-07T10:52:28;98166.00;;;5.50
20058;BMP180;10189;49.546;7.906;2024-01-07T10:54:57;98168.00;;;5.50
20058;BMP180;10189;49.546;7.906;2024-01-07T10:57:42;98161.00;;;5.50
20058;BMP180;10189;49.546;7.906;2024-01-07T11:00:10;98169.00;;;5.60
20058;BMP180;10189;49.546;7.906;2024-01-07T11:06:01;98164.00;;;5.60
20058;BMP180;10189;49.546;7.906;2024-01-07T11:08:39;98168.00;;;5.60
20058;BMP180;10189;49.546;7.906;2024-01-07T11:11:16;98163.00;;;5.50
20058;BMP180;10189;49.546;7.906;2024-01-07T11:13:43;98171.00;;;5.50
20058;BMP180;10189;49.546;7.906;2024-01-07T11:16:10;98178.00;;;5.20
20058;BMP180;10189;49.546;7.906;2024-01-07T11:18:46;98181.00;;;5.20
20058;BMP180;10189;49.546;7.906;2024-01-07T11:21:23;98193.00;;;5.20
20058;BMP180;10189;49.546;7.906;2024-01-07T11:23:50;98192.00;;;5.10
20058;BMP180;10189;49.546;7.906;2024-01-07T11:26:20;98192.00;;;5.10
20058;BMP180;10189;49.546;7.906;2024-01-07T11:28:52;98201.00;;;5.20
20058;BMP180;10189;49.546;7.906;2024-01-07T11:31:21;98192.00;;;5.10
20058;BMP180;10189;49.546;7.906;2024-01-07T11:33:51;98196.00;;;5.30
20058;BMP180;10189;49.546;7.906;2024-01-07T11:36:17;98185.00;;;5.40
20058;BMP180;10189;49.546;7.906;2024-01-07T11:38:47;98182.00;;;5.40
20058;BMP180;10189;49.546;7.906;2024-01-07T11:41:15;98195.00;;;5.40
20058;BMP180;10189;49.546;7.906;2024-01-07T11:44:00;98193.00;;;5.30
20058;BMP180;10189;49.546;7.906;2024-01-07T11:46:27;98189.00;;;5.30
20058;BMP180;10189;49.546;7.906;2024-01-07T11:48:56;98182.00;;;5.20
20058;BMP180;10189;49.546;7.906;2024-01-07T11:51:26;98187.00;;;5.50
20058;BMP180;10189;49.546;7.906;2024-01-07T11:53:52;98180.00;;;5.40
20058;BMP180;10189;49.546;7.906;2024-01-07T11:56:19;98191.00;;;5.50
20058;BMP180;10189;49.546;7.906;2024-01-07T11:58:45;98178.00;;;5.60
20058;BMP180;10189;49.546;7.906;2024-01-07T12:01:10;98181.00;;;5.50
20058;BMP180;10189;49.546;7.906;2024-01-07T12:03:37;98188.00;;;5.50
20058;BMP180;10189;49.546;7.906;2024-01-07T12:06:04;98190.00;;;5.50
20058;BMP180;10189;49.546;7.906;2024-01-07T12:08:30;98186.00;;;5.60
20058;BMP180;10189;49.546;7.906;2024-01-07T12:10:56;98185.00;;;5.60
20058;BMP180;10189;49.546;7.906;2024-01-07T12:13:22;98190.00;;;5.50
20058;BMP180;10189;49.546;7.906;2024-01-07T12:15:49;98176.00;;;5.40
20058;BMP180;10189;49.546;7.906;2024-01-07T12:18:15;98191.00;;;5.30
20058;BMP180;10189;49.546;7.906;2024-01-07T12:20:41;98206.00;;;5.40
20058;BMP180;10189;49.546;7.906;2024-01-07T12:23:09;98190.00;;;5.50
20058;BMP180;10189;49.546;7.906;2024-01-07T12:25:35;98189.00;;;5.40
20058;BMP180;10189;49.546;7.906;2024-01-07T12:28:02;98214.00;;;5.40
20058;BMP180;10189;49.546;7.906;2024-01-07T12:30:28;98188.00;;;5.20
20058;BMP180;10189;49.546;7.906;2024-01-07T12:32:55;98194.00;;;5.30
20058;BMP180;10189;49.546;7.906;2024-01-07T12:35:20;98202.00;;;5.30
20058;BMP180;10189;49.546;7.906;2024-01-07T12:37:48;98213.00;;;5.20
20058;BMP180;10189;49.546;7.906;2024-01-07T12:40:14;98208.00;;;5.20
20058;BMP180;10189;49.546;7.906;2024-01-07T12:42:42;98207.00;;;5.30
20058;BMP180;10189;49.546;7.906;2024-01-07T12:45:15;98214.00;;;5.40
20058;BMP180;10189;49.546;7.906;2024-01-07T12:47:42;98201.00;;;5.50
20058;BMP180;10189;49.546;7.906;2024-01-07T12:50:13;98202.00;;;5.50
20058;BMP180;10189;49.546;7.906;2024-01-07T12:52:39;98213.00;;;5.50
20058;BMP180;10189;49.546;7.906;2024-01-07T12:55:07;98223.00;;;5.50
20058;BMP180;10189;49.546;7.906;2024-01-07T12:57:34;98212.00;;;5.30
20058;BMP180;10189;49.546;7.906;2024-01-07T13:00:00;98221.00;;;5.30
20058;BMP180;10189;49.546;7.906;2024-01-07T13:02:26;98218.00;;;5.20
20058;BMP180;10189;49.546;7.906;2024-01-07T13:04:52;98220.00;;;5.20
20058;BMP180;10189;49.546;7.906;2024-01-07T13:07:18;98227.00;;;5.10
20058;BMP180;10189;49.546;7.906;2024-01-07T13:09:44;98234.00;;;5.10
20058;BMP180;10189;49.546;7.906;2024-01-07T13:12:11;98229.00;;;5.10
20058;BMP180;10189;49.546;7.906;2024-01-07T13:14:37;98235.00;;;5.10
20058;BMP180;10189;49.546;7.906;2024-01-07T13:17:03;98233.00;;;5.10
20058;BMP180;10189;49.546;7.906;2024-01-07T13:19:32;98238.00;;;5.00
20058;BMP180;10189;49.546;7.906;2024-01-07T13:21:59;98233.00;;;5.00
20058;BMP180;10189;49.546;7.906;2024-01-07T13:24:27;98242.00;;;5.00
20058;BMP180;10189;49.546;7.906;2024-01-07T13:26:54;98249.00;;;4.90
20058;BMP180;10189;49.546;7.906;2024-01-07T13:29:20;98247.00;;;4.90
20058;BMP180;10189;49.546;7.906;2024-01-07T13:31:46;98252.00;;;4.90
20058;BMP180;10189;49.546;7.906;2024-01-07T13:34:12;98248.00;;;4.80
20058;BMP180;10189;49.546;7.906;2024-01-07T13:36:40;98262.00;;;4.80
20058;BMP180;10189;49.546;7.906;2024-01-07T13:39:06;98249.00;;;4.80
20058;BMP180;10189;49.546;7.906;2024-01-07T13:41:34;98260.00;;;4.70
20058;BMP180;10189;49.546;7.906;2024-01-07T13:44:02;98260.00;;;4.70
20058;BMP180;10189;49.546;7.906;2024-01-07T13:46:33;98275.00;;;4.70
20058;BMP180;10189;49.546;7.906;2024-01-07T13:48:59;98266.00;;;4.60
20058;BMP180;10189;49.546;7.906;2024-01-07T13:51:26;98271.00;;;4.70
20058;BMP180;10189;49.546;7.906;2024-01-07T13:53:52;98267.00;;;4.60
20058;BMP180;10189;49.546;7.906;2024-01-07T13:56:18;98263.00;;;4.70
20058;BMP180;10189;49.546;7.906;2024-01-07T13:58:44;98287.00;;;4.60
20058;BMP180;10189;49.546;7.906;2024-01-07T14:01:14;98293.00;;;4.70
20058;BMP180;10189;49.546;7.906;2024-01-07T14:03:40;98284.00;;;4.60
20058;BMP180;10189;49.546;7.906;2024-01-07T14:06:06;98317.00;;;4.60
20058;BMP180;10189;49.546;7.906;2024-01-07T14:08:32;98305.00;;;4.60
20058;BMP180;10189;49.546;7.906;2024-01-07T14:10:59;98292.00;;;4.60
20058;BMP180;10189;49.546;7.906;2024-01-07T14:13:25;98314.00;;;4.60
20058;BMP180;10189;49.546;7.906;2024-01-07T14:15:51;98310.00;;;4.50
20058;BMP180;10189;49.546;7.906;2024-01-07T14:18:17;98306.00;;;4.50
20058;BMP180;10189;49.546;7.906;2024-01-07T14:20:47;98304.00;;;4.50
20058;BMP180;10189;49.546;7.906;2024-01-07T14:23:13;98304.00;;;4.50